Time;durP1;ratioP1;P1;durP2;ratioP2;P2;SDS_P1;SDS_P2;PMS_P1;PMS_P2;Temp;Humidity;BMP_temperature;BMP_pressure;BME280_temperature;BME280_humidity;BME280_pressure;Samples;Min_cycle;Max_cycle;Signal;HPM_P1;HPM_P2
2023/01/04 00:00:04;;;;;;;25.30;17.37;;;;;;;8.69;86.46;100599.53;1690078;82;21799;-79
2023/01/04 00:03:10;;;;;;;33.48;17.48;;;;;;;8.60;86.49;100601.84;1696143;82;21210;-79
2023/01/04 00:06:18;;;;;;;27.02;18.35;;;;;;;8.47;87.34;100607.33;1678639;83;23118;-79
2023/01/04 00:09:24;;;;;;;27.55;18.02;;;;;;;8.69;86.46;100612.31;1725948;82;21240;-79
2023/01/04 00:12:31;;;;;;;25.30;17.12;;;;;;;8.79;86.03;100610.35;1725488;82;21184;-79
2023/01/04 00:15:36;;;;;;;27.05;18.32;;;;;;;8.78;85.89;100615.97;1738121;82;21287;-78
2023/01/04 00:18:44;;;;;;;25.55;17.67;;;;;;;8.83;85.34;100621.30;1730671;82;21757;-79
2023/01/04 00:21:49;;;;;;;25.35;16.82;;;;;;;8.96;85.29;100614.08;1736011;82;21239;-79
2023/01/04 00:24:55;;;;;;;31.00;19.02;;;;;;;8.45;86.64;100617.03;1726337;82;21205;-79
2023/01/04 00:28:02;;;;;;;24.30;15.85;;;;;;;8.67;86.24;100617.08;1720217;82;21285;-79
2023/01/04 00:31:15;;;;;;;23.92;16.10;;;;;;;8.58;86.17;100618.88;1726372;82;21248;-78
2023/01/04 00:34:22;;;;;;;27.22;17.60;;;;;;;8.67;85.60;100614.36;1716199;83;21193;-79
2023/01/04 00:37:27;;;;;;;22.50;16.60;;;;;;;8.64;85.42;100620.97;1742073;80;21192;-77
2023/01/04 00:40:33;;;;;;;26.00;17.35;;;;;;;8.58;85.24;100618.88;1742995;80;22050;-79
2023/01/04 00:43:38;;;;;;;27.32;16.70;;;;;;;8.42;85.47;100612.77;1727003;81;21222;-77
2023/01/04 00:46:44;;;;;;;25.55;16.70;;;;;;;8.60;85.20;100620.06;1722067;81;21422;-78
2023/01/04 00:49:49;;;;;;;23.42;15.48;;;;;;;8.71;84.40;100607.58;1715986;82;21216;-78
2023/01/04 00:52:57;;;;;;;24.57;16.23;;;;;;;8.85;83.90;100611.11;1742896;81;21259;-79
2023/01/04 00:56:07;;;;;;;25.82;15.80;;;;;;;8.80;84.14;100616.19;1717280;81;21269;-78
2023/01/04 00:59:12;;;;;;;;;;;;;;;8.82;84.11;100618.23;1746000;80;21187;-79
2023/01/04 01:02:18;;;;;;;24.98;16.77;;;;;;;8.82;83.71;100615.50;1746627;81;20608;-79
2023/01/04 01:05:24;;;;;;;27.15;17.42;;;;;;;8.68;84.22;100617.42;1737312;81;22604;-78
2023/01/04 01:08:31;;;;;;;21.15;15.05;;;;;;;8.52;84.77;100616.78;1733605;81;21254;-77
2023/01/04 01:11:37;;;;;;;26.93;16.97;;;;;;;8.43;84.95;100618.56;1741822;80;21193;-78
2023/01/04 01:14:44;;;;;;;28.73;16.82;;;;;;;8.36;85.27;100620.17;1731427;80;21287;-78
2023/01/04 01:17:51;;;;;;;27.75;16.07;;;;;;;8.08;86.18;100608.94;1741663;80;21256;-79
2023/01/04 01:20:57;;;;;;;27.73;16.73;;;;;;;7.88;87.01;100612.28;1738534;81;21216;-77
2023/01/04 01:24:02;;;;;;;27.35;16.27;;;;;;;8.23;86.36;100615.56;1746018;80;21184;-78
2023/01/04 01:27:08;;;;;;;27.02;17.27;;;;;;;8.24;85.58;100607.77;1746005;80;21216;-80
2023/01/04 01:30:15;;;;;;;22.65;15.30;;;;;;;8.24;86.14;100611.00;1723619;81;21218;-80
2023/01/04 01:33:20;;;;;;;27.45;15.93;;;;;;;8.36;85.73;100609.75;1740209;80;22635;-78
2023/01/04 01:36:26;;;;;;;25.48;16.67;;;;;;;8.41;85.18;100609.66;1723800;82;21307;-79
2023/01/04 01:39:32;;;;;;;24.00;15.53;;;;;;;8.31;85.38;100610.72;1723645;82;21243;-77
2023/01/04 01:42:38;;;;;;;32.28;16.37;;;;;;;8.20;86.22;100601.77;1743265;81;21247;-78
2023/01/04 01:45:44;;;;;;;31.25;17.57;;;;;;;8.36;85.63;100603.83;1721830;82;21239;-78
2023/01/04 01:48:51;;;;;;;28.77;16.35;;;;;;;8.40;85.55;100603.87;1708165;81;21163;-80
2023/01/04 01:51:56;;;;;;;22.13;14.47;;;;;;;8.48;84.75;100602.25;1722929;82;21718;-80
2023/01/04 01:55:05;;;;;;;21.45;15.10;;;;;;;8.41;84.58;100597.40;1750154;80;21156;-80
2023/01/04 01:58:12;;;;;;;25.75;15.72;;;;;;;8.47;84.23;100597.78;1732864;81;21733;-78
2023/01/04 02:01:17;;;;;;;24.72;14.90;;;;;;;8.65;83.26;100596.77;1731614;80;21196;-78
2023/01/04 02:04:24;;;;;;;21.23;15.00;;;;;;;8.69;83.01;100597.31;1740720;81;21235;-78
2023/01/04 02:07:31;;;;;;;26.57;15.38;;;;;;;8.52;83.39;100600.93;1723388;82;21820;-80
2023/01/04 02:10:36;;;;;;;24.60;14.60;;;;;;;8.20;84.50;100605.85;1744698;80;21212;-80
2023/01/04 02:17:41;;;;;;;24.80;16.25;;;;;;;8.53;83.31;100605.36;1746117;80;21207;-80
2023/01/04 02:21:12;;;;;;;22.22;14.60;;;;;;;8.38;83.18;100599.60;1706872;81;21307;-79
2023/01/04 02:24:42;;;;;;;21.30;14.55;;;;;;;8.22;83.43;100600.23;1741996;80;21179;-78
2023/01/04 02:27:55;;;;;;;23.92;13.60;;;;;;;8.35;82.59;100596.63;1737590;80;21749;-80
2023/01/04 02:31:30;;;;;;;29.60;14.68;;;;;;;8.62;81.12;100601.70;1720853;82;21191;-78
2023/01/04 02:35:13;;;;;;;23.35;13.28;;;;;;;8.50;81.01;100596.13;1739422;81;21183;-77
2023/01/04 02:38:37;;;;;;;21.57;13.18;;;;;;;7.99;81.77;100593.50;1736597;81;21211;-78
2023/01/04 02:42:08;;;;;;;21.10;13.40;;;;;;;8.12;81.51;100596.72;1718845;82;21252;-78
2023/01/04 02:45:14;;;;;;;18.57;12.25;;;;;;;8.09;80.21;100599.74;1729676;80;21634;-78
2023/01/04 02:51:44;;;;;;;20.30;11.28;;;;;;;7.90;80.50;100596.16;1724160;82;21270;-78
2023/01/04 02:54:51;;;;;;;16.25;10.78;;;;;;;7.91;80.00;100604.67;1746059;80;21268;-79
2023/01/04 02:58:10;;;;;;;17.67;10.50;;;;;;;8.08;79.38;100599.41;1720952;82;21208;-78
2023/01/04 03:08:57;;;;;;;16.87;9.08;;;;;;;7.87;78.53;100603.26;1718874;82;21247;-79
2023/01/04 03:15:35;;;;;;;13.75;8.40;;;;;;;7.78;78.08;100601.45;1723619;82;21189;-78
2023/01/04 03:18:44;;;;;;;13.98;9.05;;;;;;;7.56;78.18;100611.36;1715208;82;21240;-77
2023/01/04 03:21:50;;;;;;;14.63;8.53;;;;;;;7.45;78.21;100610.19;1719683;81;21201;-77
2023/01/04 03:35:27;;;;;;;12.50;7.90;;;;;;;7.25;78.52;100623.01;1713013;82;21199;-79
2023/01/04 03:49:49;;;;;;;12.93;7.35;;;;;;;7.06;77.56;100631.56;1749049;80;20233;-76
2023/01/04 03:52:54;;;;;;;14.90;7.65;;;;;;;7.08;77.75;100637.70;1735443;80;21193;-78
2023/01/04 03:56:00;;;;;;;14.18;7.50;;;;;;;7.10;77.65;100634.83;1742594;80;21191;-77
2023/01/04 03:59:05;;;;;;;11.78;7.25;;;;;;;7.15;77.30;100632.52;1745921;80;21193;-79
2023/01/04 04:02:12;;;;;;;15.70;7.47;;;;;;;7.20;76.95;100635.69;1741711;81;21224;-77
2023/01/04 04:08:47;;;;;;;15.03;7.95;;;;;;;7.32;76.07;100633.64;1733957;80;21188;-80
2023/01/04 04:11:52;;;;;;;14.50;8.48;;;;;;;7.24;76.12;100644.40;1718880;81;21189;-78
2023/01/04 04:14:58;;;;;;;15.20;8.30;;;;;;;6.97;76.61;100637.88;1717957;83;21213;-78
2023/01/04 04:18:06;;;;;;;12.28;6.85;;;;;;;6.99;76.45;100639.08;1738591;80;21223;-78
2023/01/04 04:21:11;;;;;;;12.07;7.65;;;;;;;6.88;76.21;100638.75;1719847;81;21522;-79
2023/01/04 04:24:27;;;;;;;31.50;10.80;;;;;;;7.00;76.02;100638.92;1719456;82;21315;-79
2023/01/04 04:27:32;;;;;;;20.32;8.08;;;;;;;7.05;75.88;100640.70;1689989;82;21732;-79
2023/01/04 04:30:39;;;;;;;12.82;8.10;;;;;;;6.93;75.98;100632.88;1734439;81;21188;-79
2023/01/04 04:33:46;;;;;;;14.85;8.90;;;;;;;6.89;75.85;100631.79;1729656;81;21180;-79
2023/01/04 04:36:52;;;;;;;17.60;7.75;;;;;;;6.74;76.15;100635.95;1690732;83;21860;-78
2023/01/04 04:39:57;;;;;;;14.38;6.95;;;;;;;6.89;75.56;100639.95;1722932;82;21275;-79
2023/01/04 04:43:03;;;;;;;10.10;7.25;;;;;;;6.76;75.87;100635.30;1720412;82;21239;-79
2023/01/04 04:46:09;;;;;;;12.68;7.20;;;;;;;6.32;76.44;100632.15;1724435;80;21195;-80
2023/01/04 04:49:14;;;;;;;9.60;6.62;;;;;;;6.60;75.93;100635.03;1715154;82;21243;-80
2023/01/04 04:52:20;;;;;;;14.98;6.92;;;;;;;5.69;76.61;100638.30;1735048;81;21259;-79
2023/01/04 04:55:25;;;;;;;14.15;6.83;;;;;;;6.56;75.67;100634.45;1723725;82;21798;-80
2023/01/04 04:58:32;;;;;;;13.00;7.33;;;;;;;6.43;75.64;100628.44;1691749;83;21236;-78
2023/01/04 05:01:37;;;;;;;9.60;6.67;;;;;;;6.40;75.26;100628.23;1749452;80;21259;-80
2023/01/04 05:04:44;;;;;;;14.45;7.05;;;;;;;6.14;75.83;100631.11;1716285;82;21810;-79
2023/01/04 05:07:49;;;;;;;10.00;6.58;;;;;;;6.01;76.54;100627.80;1721574;80;21232;-78
2023/01/04 05:10:55;;;;;;;12.18;6.92;;;;;;;5.98;76.76;100634.38;1723794;81;21179;-78
2023/01/04 05:14:00;;;;;;;13.78;7.00;;;;;;;5.97;76.82;100627.70;1722279;80;21229;-80
2023/01/04 05:17:05;;;;;;;15.83;7.12;;;;;;;4.68;79.72;100620.53;1735620;81;21331;-80
2023/01/04 05:20:12;;;;;;;10.03;6.62;;;;;;;5.33;81.40;100632.94;1726297;81;21221;-80
2023/01/04 05:23:19;;;;;;;11.80;7.03;;;;;;;5.70;78.30;100625.61;1715359;82;21211;-80
2023/01/04 05:26:24;;;;;;;14.05;7.30;;;;;;;5.68;78.33;100637.08;1717994;83;21188;-80
2023/01/04 05:32:52;;;;;;;13.45;7.17;;;;;;;5.42;79.12;100632.12;1747057;80;21200;-78
2023/01/04 05:35:57;;;;;;;9.98;7.72;;;;;;;5.43;79.20;100645.20;1730458;80;21196;-79
2023/01/04 05:39:03;;;;;;;11.88;7.58;;;;;;;5.53;79.26;100646.09;1716300;82;21262;-80
2023/01/04 05:42:26;;;;;;;10.93;7.72;;;;;;;5.62;78.39;100646.14;1743645;81;21208;-80
2023/01/04 05:45:32;;;;;;;13.55;7.45;;;;;;;5.50;78.33;100647.71;1742157;81;21347;-80
2023/01/04 05:48:37;;;;;;;10.98;7.03;;;;;;;5.68;77.59;100654.73;1745678;80;21219;-79
2023/01/04 05:51:43;;;;;;;13.65;7.37;;;;;;;5.46;78.45;100654.40;1742659;81;21744;-79
2023/01/04 05:54:49;;;;;;;14.85;8.33;;;;;;;5.36;78.86;100657.95;1745396;81;21248;-78
2023/01/04 05:57:55;;;;;;;13.68;7.58;;;;;;;5.50;78.67;100658.56;1719679;82;21279;-78
2023/01/04 06:01:01;;;;;;;17.20;8.28;;;;;;;5.20;79.90;100666.19;1695671;82;21215;-78
2023/01/04 06:04:07;;;;;;;17.30;8.95;;;;;;;5.19;80.26;100663.98;1736117;80;21172;-78
2023/01/04 06:07:15;;;;;;;15.70;8.53;;;;;;;5.32;80.28;100663.28;1741511;80;21304;-78
2023/01/04 06:10:21;;;;;;;19.85;10.40;;;;;;;5.16;81.10;100664.73;1742808;80;21310;-78
2023/01/04 06:13:28;;;;;;;15.98;9.80;;;;;;;5.43;80.34;100670.47;1728122;80;21243;-80
2023/01/04 06:16:33;;;;;;;14.13;9.68;;;;;;;5.35;80.96;100675.20;1730688;80;21283;-78
2023/01/04 06:19:39;;;;;;;13.93;10.18;;;;;;;5.47;80.76;100677.85;1725092;80;21180;-80
2023/01/04 06:22:45;;;;;;;16.65;8.85;;;;;;;5.63;80.44;100693.98;1720544;80;21216;-78
2023/01/04 06:25:52;;;;;;;15.03;8.78;;;;;;;5.82;79.64;100691.86;1717189;80;21251;-80
2023/01/04 06:28:59;;;;;;;15.68;9.95;;;;;;;5.69;79.66;100691.72;1715219;81;21216;-78
2023/01/04 06:32:04;;;;;;;17.35;11.75;;;;;;;5.68;79.87;100685.44;1776647;78;21211;-77
2023/01/04 06:35:10;;;;;;;22.50;11.08;;;;;;;5.63;80.04;100684.98;1778867;78;21247;-78
2023/01/04 06:38:16;;;;;;;19.57;9.70;;;;;;;5.63;80.12;100695.34;1724204;79;21164;-76
2023/01/04 06:41:21;;;;;;;20.50;9.90;;;;;;;5.70;80.14;100692.97;1717340;80;21197;-77
2023/01/04 06:44:27;;;;;;;14.60;9.68;;;;;;;5.72;80.13;100698.25;1738194;78;21279;-78
2023/01/04 06:47:33;;;;;;;19.62;9.70;;;;;;;5.53;80.51;100707.15;1742778;80;21231;-79
2023/01/04 06:50:39;;;;;;;14.35;9.18;;;;;;;5.68;80.43;100706.30;1747805;80;21290;-79
2023/01/04 06:53:46;;;;;;;17.52;9.85;;;;;;;5.67;80.39;100714.94;1755307;78;21265;-79
2023/01/04 06:56:51;;;;;;;16.00;9.05;;;;;;;5.66;80.38;100711.02;1744419;78;21938;-79
2023/01/04 06:59:58;;;;;;;20.17;10.28;;;;;;;5.80;80.03;100709.30;1735051;80;21224;-79
2023/01/04 07:03:05;;;;;;;18.40;10.23;;;;;;;5.81;79.65;100713.72;1742450;78;21160;-78
2023/01/04 07:06:13;;;;;;;23.47;11.43;;;;;;;5.90;79.81;100716.98;1716349;80;21820;-79
2023/01/04 07:09:19;;;;;;;16.93;9.85;;;;;;;5.84;79.51;100718.89;1720631;81;21739;-77
2023/01/04 07:12:25;;;;;;;15.48;9.63;;;;;;;5.88;79.86;100734.77;1744121;80;21201;-77
2023/01/04 07:15:31;;;;;;;17.62;10.53;;;;;;;6.12;79.00;100733.62;1745552;80;21231;-77
2023/01/04 07:18:39;;;;;;;17.55;10.60;;;;;;;6.04;79.21;100730.72;1723763;80;21219;-79
2023/01/04 07:21:47;;;;;;;17.25;10.30;;;;;;;6.10;79.13;100730.16;1719717;80;21241;-79
2023/01/04 07:24:54;;;;;;;17.75;9.75;;;;;;;6.25;79.04;100738.28;1729919;80;21847;-78
2023/01/04 07:28:00;;;;;;;18.82;10.10;;;;;;;6.17;78.78;100744.08;1725759;81;21211;-78
2023/01/04 07:31:07;;;;;;;15.65;9.83;;;;;;;6.21;78.49;100738.23;1748092;80;21241;-78
2023/01/04 07:34:13;;;;;;;16.50;10.45;;;;;;;5.99;79.07;100739.27;1722825;80;21227;-77
2023/01/04 07:37:19;;;;;;;15.25;9.75;;;;;;;5.97;78.98;100743.97;1710297;82;21796;-77
2023/01/04 07:40:25;;;;;;;16.05;10.03;;;;;;;5.92;79.08;100739.95;1729244;80;21651;-79
2023/01/04 07:43:30;;;;;;;17.30;10.45;;;;;;;5.86;79.08;100742.17;1728621;80;22304;-79
2023/01/04 07:46:35;;;;;;;20.25;10.25;;;;;;;5.76;79.21;100738.56;1740659;80;21235;-80
2023/01/04 07:49:41;;;;;;;17.02;9.75;;;;;;;5.56;81.34;100743.52;1727776;80;21216;-79
2023/01/04 07:52:48;;;;;;;18.35;10.93;;;;;;;5.87;79.46;100741.17;1694095;82;21283;-79
2023/01/04 07:55:52;;;;;;;22.48;10.80;;;;;;;5.89;79.22;100741.91;1712230;81;21251;-79
2023/01/04 07:58:58;;;;;;;16.07;9.95;;;;;;;5.88;79.23;100744.27;1678333;82;21586;-79
2023/01/04 08:02:03;;;;;;;18.00;9.88;;;;;;;5.70;79.49;100753.18;1712810;81;21235;-79
2023/01/04 08:05:09;;;;;;;16.87;9.58;;;;;;;6.05;78.62;100745.51;1691423;81;22310;-79
2023/01/04 08:08:14;;;;;;;14.87;9.40;;;;;;;6.06;78.36;100739.58;1679939;83;21264;-79
2023/01/04 08:11:23;;;;;;;16.23;9.50;;;;;;;5.93;78.46;100737.11;1718623;81;21273;-80
2023/01/04 08:14:29;;;;;;;16.93;8.63;;;;;;;6.15;77.61;100746.91;1721423;81;21754;-79
2023/01/04 08:17:34;;;;;;;17.12;9.63;;;;;;;6.31;76.97;100749.13;1742504;80;21191;-79
2023/01/04 08:20:40;;;;;;;16.73;9.10;;;;;;;6.26;76.84;100748.17;1737055;80;21210;-79
2023/01/04 08:23:48;;;;;;;14.73;8.58;;;;;;;6.18;76.96;100749.86;1724044;81;21686;-79
2023/01/04 08:26:55;;;;;;;25.68;9.13;;;;;;;5.76;78.34;100749.41;1717835;81;21197;-79
2023/01/04 08:30:02;;;;;;;14.28;9.48;;;;;;;5.86;78.48;100749.46;1683779;82;21116;-80
2023/01/04 08:33:08;;;;;;;16.55;9.63;;;;;;;6.13;77.50;100746.19;1729006;81;21208;-79
2023/01/04 08:36:24;;;;;;;17.05;10.08;;;;;;;6.18;77.35;100743.07;1725169;81;21211;-80
2023/01/04 08:39:34;;;;;;;19.00;9.98;;;;;;;6.22;77.06;100739.08;1727839;80;21194;-79
2023/01/04 08:42:40;;;;;;;14.55;8.50;;;;;;;6.10;77.27;100732.88;1733883;80;21215;-79
2023/01/04 08:45:45;;;;;;;14.50;8.80;;;;;;;6.34;76.96;100730.66;1717316;81;21208;-81
2023/01/04 08:48:50;;;;;;;12.88;8.45;;;;;;;6.32;76.68;100734.03;1711092;81;21243;-78
2023/01/04 08:51:56;;;;;;;18.10;8.78;;;;;;;6.34;77.00;100730.66;1719540;80;21649;-76
2023/01/04 08:55:03;;;;;;;18.92;8.55;;;;;;;6.39;76.79;100730.25;1716148;81;21801;-78
2023/01/04 08:58:11;;;;;;;15.20;8.13;;;;;;;6.37;76.13;100719.53;1723763;80;21193;-78
2023/01/04 09:01:17;;;;;;;17.15;7.92;;;;;;;6.68;76.01;100730.33;1712578;79;21156;-80
2023/01/04 09:04:22;;;;;;;13.20;7.17;;;;;;;6.89;74.82;100722.03;1703468;82;21246;-78
2023/01/04 09:07:28;;;;;;;16.70;7.85;;;;;;;6.78;74.45;100723.04;1744314;80;21236;-77
2023/01/04 09:10:34;;;;;;;13.58;7.40;;;;;;;6.82;74.63;100729.91;1736746;80;21721;-77
2023/01/04 09:13:41;;;;;;;9.75;6.55;;;;;;;6.79;74.77;100722.03;1738629;80;21822;-77
2023/01/04 09:16:47;;;;;;;12.80;6.33;;;;;;;6.86;74.52;100717.72;1729739;80;21191;-77
2023/01/04 09:19:53;;;;;;;12.80;7.40;;;;;;;6.88;74.26;100721.17;1735658;79;21253;-77
2023/01/04 09:23:00;;;;;;;15.85;7.00;;;;;;;7.00;73.59;100719.66;1739232;80;21224;-80
2023/01/04 09:26:28;;;;;;;10.10;6.22;;;;;;;6.94;72.61;100711.58;1738503;80;21251;-77
2023/01/04 09:29:34;;;;;;;15.75;6.47;;;;;;;7.34;71.13;100710.06;1736403;80;21721;-78
2023/01/04 09:32:41;;;;;;;14.28;6.62;;;;;;;7.62;69.75;100711.48;1734633;78;21813;-78
2023/01/04 09:35:50;;;;;;;12.50;5.83;;;;;;;7.62;69.65;100704.20;1698154;81;21225;-77
2023/01/04 09:38:55;;;;;;;12.75;6.50;;;;;;;7.57;70.04;100706.98;1677605;82;21246;-78
2023/01/04 09:42:07;;;;;;;14.58;6.78;;;;;;;7.40;71.07;100709.97;1733485;80;21204;-78
2023/01/04 09:45:32;;;;;;;11.78;6.30;;;;;;;7.34;71.42;100703.73;1736824;79;21791;-78
2023/01/04 09:48:41;;;;;;;13.13;6.35;;;;;;;7.54;70.47;100698.63;1736125;80;21474;-77
2023/01/04 09:51:47;;;;;;;12.50;5.47;;;;;;;7.13;71.63;100691.67;1736144;80;21256;-77
2023/01/04 09:55:03;;;;;;;8.93;4.78;;;;;;;7.36;71.47;100696.30;1727520;80;21201;-77
2023/01/04 09:58:31;;;;;;;8.50;4.92;;;;;;;7.34;69.14;100705.09;1728556;81;21200;-77
2023/01/04 10:02:04;;;;;;;9.28;5.37;;;;;;;7.38;67.62;100695.13;1728818;81;21204;-80
2023/01/04 10:05:10;;;;;;;12.05;5.28;;;;;;;7.41;68.93;100685.83;1689437;83;21267;-80
2023/01/04 10:08:24;;;;;;;15.40;4.87;;;;;;;7.71;69.07;100690.68;1707031;81;21207;-77
2023/01/04 10:11:54;;;;;;;10.60;4.97;;;;;;;7.72;68.21;100681.53;1722344;80;21190;-78
2023/01/04 10:15:35;;;;;;;9.00;4.62;;;;;;;7.89;67.21;100681.58;1731423;80;21252;-77
2023/01/04 10:18:52;;;;;;;8.80;5.20;;;;;;;7.84;66.53;100677.09;1728513;81;21232;-78
2023/01/04 10:22:08;;;;;;;7.95;4.33;;;;;;;7.84;66.66;100687.98;1728413;81;21204;-78
2023/01/04 10:25:36;;;;;;;7.92;4.20;;;;;;;7.76;65.93;100698.75;1711925;81;21200;-78
2023/01/04 10:29:10;;;;;;;8.70;4.30;;;;;;;7.81;64.83;100684.21;1729317;81;21236;-78
2023/01/04 10:32:36;;;;;;;8.45;4.10;;;;;;;7.58;65.26;100674.70;1730606;80;22143;-81
2023/01/04 10:35:42;;;;;;;13.78;4.08;;;;;;;7.51;65.78;100674.91;1723217;81;21197;-80
2023/01/04 10:38:49;;;;;;;7.67;4.35;;;;;;;7.40;65.51;100672.73;1660198;82;21850;-80
2023/01/04 10:42:25;;;;;;;6.25;3.67;;;;;;;7.33;66.68;100670.22;1736789;80;21208;-80
2023/01/04 10:45:38;;;;;;;11.70;3.27;;;;;;;7.25;67.64;100663.31;1719895;80;21216;-80
2023/01/04 10:48:57;;;;;;;6.03;3.90;;;;;;;7.42;66.07;100670.70;1680644;83;21232;-80
2023/01/04 10:52:22;;;;;;;7.50;4.20;;;;;;;7.59;66.25;100660.92;1710178;81;21197;-81
2023/01/04 10:55:39;;;;;;;6.75;3.52;;;;;;;7.59;66.08;100663.65;1722908;80;21247;-81
2023/01/04 10:59:00;;;;;;;6.25;3.67;;;;;;;7.41;65.58;100668.99;1730369;80;21257;-80
2023/01/04 11:02:10;;;;;;;6.22;3.37;;;;;;;7.36;66.03;100672.66;1723053;82;21190;-80
2023/01/04 11:05:36;;;;;;;5.58;2.90;;;;;;;7.54;65.57;100655.58;1726722;81;21207;-80
2023/01/04 11:08:51;;;;;;;5.25;2.98;;;;;;;7.54;65.57;100655.58;1733424;82;21285;-80
2023/01/04 11:11:56;;;;;;;8.50;3.02;;;;;;;7.62;65.05;100659.75;1715531;81;21212;-80
2023/01/04 11:15:02;;;;;;;8.40;2.58;;;;;;;7.45;64.65;100660.55;1735300;81;21171;-81
2023/01/04 11:18:08;;;;;;;5.78;2.70;;;;;;;7.49;64.75;100670.13;1726632;81;21220;-80
2023/01/04 11:21:17;;;;;;;6.90;3.15;;;;;;;7.73;64.74;100655.50;1732201;81;21200;-80
2023/01/04 11:24:22;;;;;;;5.53;2.50;;;;;;;7.61;63.62;100673.02;1700043;82;21172;-81
2023/01/04 11:27:32;;;;;;;7.87;3.08;;;;;;;7.49;63.86;100673.71;1675699;83;22035;-80
2023/01/04 11:30:54;;;;;;;4.97;2.40;;;;;;;7.44;63.71;100666.49;1677512;84;21178;-81
2023/01/04 11:34:02;;;;;;;6.40;2.70;;;;;;;7.56;62.97;100679.41;1714476;80;21715;-78
2023/01/04 11:37:08;;;;;;;5.62;2.50;;;;;;;7.57;62.88;100664.78;1711579;81;21190;-78
2023/01/04 11:40:29;;;;;;;8.13;2.62;;;;;;;7.37;62.49;100673.52;1717262;81;21762;-79
2023/01/04 11:43:36;;;;;;;3.00;2.30;;;;;;;7.43;62.82;100655.23;1731725;80;21193;-78
2023/01/04 11:46:41;;;;;;;3.70;2.20;;;;;;;7.57;62.42;100644.37;1728199;80;21211;-80
2023/01/04 11:49:47;;;;;;;8.25;2.80;;;;;;;7.63;62.29;100646.52;1722571;80;21757;-80
2023/01/04 11:52:54;;;;;;;5.78;2.55;;;;;;;7.58;62.47;100651.05;1717923;81;21248;-80
2023/01/04 11:56:15;;;;;;;5.47;2.95;;;;;;;7.44;61.80;100648.80;1724990;81;21201;-81
2023/01/04 11:59:24;;;;;;;3.77;2.10;;;;;;;7.37;62.86;100649.88;1732021;80;21243;-78
2023/01/04 12:02:32;;;;;;;4.30;2.30;;;;;;;7.47;64.15;100640.83;1689667;83;21178;-79
2023/01/04 12:05:39;;;;;;;7.12;2.50;;;;;;;7.67;62.94;100651.52;1730566;81;21155;-79
2023/01/04 12:08:44;;;;;;;6.28;3.05;;;;;;;7.42;63.20;100663.05;1710609;82;21224;-79
2023/01/04 12:11:58;;;;;;;4.78;2.47;;;;;;;7.52;63.75;100658.93;1723244;81;21512;-82
2023/01/04 12:15:13;;;;;;;5.62;2.55;;;;;;;7.64;64.75;100661.84;1733236;80;21188;-81
2023/01/04 12:18:25;;;;;;;5.00;2.37;;;;;;;7.83;62.74;100644.05;1719928;80;21183;-81
2023/01/04 12:21:33;;;;;;;2.80;1.90;;;;;;;7.68;62.79;100678.23;1738085;80;21772;-81
2023/01/04 12:24:39;;;;;;;3.12;1.92;;;;;;;7.73;61.26;100689.54;1715342;82;21197;-81
2023/01/04 12:27:46;;;;;;;3.67;2.12;;;;;;;7.64;59.15;100698.59;1730657;81;21211;-81
2023/01/04 12:30:51;;;;;;;2.52;1.98;;;;;;;7.50;59.17;100692.26;1711759;80;21255;-81
2023/01/04 12:33:58;;;;;;;2.30;1.67;;;;;;;7.34;59.20;100681.96;1734420;80;21577;-81
2023/01/04 12:37:08;;;;;;;4.83;2.00;;;;;;;7.14;59.57;100698.32;1690926;81;21142;-81
2023/01/04 12:40:55;;;;;;;3.45;1.70;;;;;;;7.15;58.63;100701.42;1737205;80;21220;-79
2023/01/04 12:44:00;;;;;;;1.65;1.50;;;;;;;7.10;58.62;100708.27;1731792;80;21200;-79
2023/01/04 12:50:33;;;;;;;2.55;1.98;;;;;;;7.07;58.74;100716.74;1716642;81;21855;-80
2023/01/04 12:53:56;;;;;;;3.80;2.42;;;;;;;6.97;60.10;100713.17;1697953;80;21264;-79
2023/01/04 12:57:30;;;;;;;2.95;2.02;;;;;;;6.98;59.60;100717.61;1703876;81;21257;-80
2023/01/04 13:01:03;;;;;;;3.85;2.10;;;;;;;6.95;58.36;100713.80;1713334;81;21228;-81
2023/01/04 13:04:28;;;;;;;3.47;2.00;;;;;;;6.93;58.65;100721.25;1721642;80;21191;-81
2023/01/04 13:07:39;;;;;;;2.90;1.75;;;;;;;6.80;58.31;100719.66;1718795;81;21188;-80
2023/01/04 13:10:56;;;;;;;2.50;1.57;;;;;;;6.87;56.86;100733.57;1732955;81;21200;-81
2023/01/04 13:14:16;;;;;;;2.95;1.80;;;;;;;6.78;56.59;100725.76;1743228;80;21172;-81
2023/01/04 13:17:29;;;;;;;3.60;1.70;;;;;;;6.74;55.55;100733.83;1721758;81;21185;-80
2023/01/04 13:20:34;;;;;;;2.72;1.87;;;;;;;6.65;54.21;100737.39;1726477;80;21659;-78
2023/01/04 13:23:39;;;;;;;3.25;1.67;;;;;;;6.59;54.45;100729.31;1690929;81;21178;-78
2023/01/04 13:26:48;;;;;;;2.30;1.72;;;;;;;6.62;54.75;100718.13;1738540;80;21192;-78
2023/01/04 13:29:54;;;;;;;3.33;1.62;;;;;;;6.65;54.89;100719.73;1731387;79;21734;-78
2023/01/04 13:33:01;;;;;;;3.00;1.65;;;;;;;6.56;55.48;100713.27;1723404;80;21244;-78
2023/01/04 13:36:17;;;;;;;2.12;1.70;;;;;;;6.27;56.29;100721.36;1741702;80;21220;-78
2023/01/04 13:39:27;;;;;;;2.17;1.77;;;;;;;6.36;57.38;100716.45;1724143;80;21323;-78
2023/01/04 13:42:39;;;;;;;3.62;2.10;;;;;;;6.25;58.10;100721.98;1720711;81;21699;-78
2023/01/04 13:46:05;;;;;;;2.20;1.80;;;;;;;6.35;57.09;100732.41;1719917;81;21208;-78
2023/01/04 13:49:11;;;;;;;3.45;1.62;;;;;;;6.18;58.00;100738.49;1731135;80;21260;-80
2023/01/04 13:52:34;;;;;;;1.60;1.45;;;;;;;6.36;57.67;100729.19;1728812;80;21741;-79
2023/01/04 13:55:43;;;;;;;3.27;1.80;;;;;;;6.44;56.37;100721.67;1732358;80;21262;-77
2023/01/04 13:58:50;;;;;;;2.55;1.60;;;;;;;6.46;57.41;100725.13;1693889;82;21306;-80
2023/01/04 14:01:55;;;;;;;3.10;2.08;;;;;;;6.43;57.92;100716.75;1676773;83;21237;-80
2023/01/04 14:05:02;;;;;;;5.62;3.30;;;;;;;6.40;58.11;100712.47;1686241;83;21250;-79
2023/01/04 14:08:07;;;;;;;8.53;3.80;;;;;;;6.28;59.35;100713.56;1736198;81;21487;-78
2023/01/04 14:15:02;;;;;;;3.65;2.00;;;;;;;6.41;59.45;100720.12;1732461;81;21204;-80
2023/01/04 14:18:08;;;;;;;3.87;2.10;;;;;;;6.42;58.90;100723.69;1732920;81;21153;-78
2023/01/04 14:21:23;;;;;;;3.42;1.60;;;;;;;6.35;59.35;100718.83;1732319;81;21260;-79
2023/01/04 14:24:41;;;;;;;2.98;2.00;;;;;;;6.14;59.42;100722.11;1736775;81;21589;-79
2023/01/04 14:27:51;;;;;;;3.75;2.02;;;;;;;6.02;60.71;100728.16;1731866;81;21193;-78
2023/01/04 14:31:08;;;;;;;2.85;1.80;;;;;;;6.13;59.80;100721.75;1733201;80;21224;-78
2023/01/04 14:34:13;;;;;;;3.92;2.27;;;;;;;6.11;59.54;100731.87;1731765;82;21200;-78
2023/01/04 14:37:18;;;;;;;4.28;1.72;;;;;;;5.92;60.88;100722.30;1733494;81;21750;-79
2023/01/04 14:40:32;;;;;;;1.95;1.70;;;;;;;5.81;61.45;100734.08;1740011;80;21768;-80
2023/01/04 14:43:43;;;;;;;2.45;1.80;;;;;;;5.89;61.11;100732.41;1726345;82;21209;-80
2023/01/04 14:46:49;;;;;;;3.62;1.60;;;;;;;5.95;60.74;100747.83;1717897;81;21205;-80
2023/01/04 14:49:55;;;;;;;3.15;1.67;;;;;;;5.85;59.70;100753.18;1717139;81;21816;-78
2023/01/04 14:53:01;;;;;;;1.82;1.40;;;;;;;5.81;59.47;100741.73;1713318;82;21224;-80
2023/01/04 14:56:07;;;;;;;6.05;1.80;;;;;;;5.76;60.46;100756.20;1732524;81;22129;-80
2023/01/04 14:59:14;;;;;;;5.75;1.67;;;;;;;5.77;61.21;100759.27;1738329;81;21200;-80
2023/01/04 15:02:21;;;;;;;2.12;1.70;;;;;;;5.60;62.23;100756.70;1732485;81;21142;-80
2023/01/04 15:05:27;;;;;;;3.85;2.25;;;;;;;5.67;62.54;100759.72;1735351;82;21201;-79
2023/01/04 15:08:33;;;;;;;2.90;2.10;;;;;;;5.74;62.82;100753.25;1733111;81;21224;-78
2023/01/04 15:11:39;;;;;;;2.50;1.90;;;;;;;5.71;62.38;100761.17;1734272;81;21205;-80
2023/01/04 15:14:45;;;;;;;2.60;1.65;;;;;;;5.57;61.99;100756.95;1735606;81;21195;-80
2023/01/04 15:17:51;;;;;;;3.90;2.08;;;;;;;5.52;63.19;100757.84;1733725;81;21161;-80
2023/01/04 15:20:57;;;;;;;2.87;1.80;;;;;;;5.56;62.93;100761.16;1733515;81;21240;-78
2023/01/04 15:24:03;;;;;;;3.20;2.12;;;;;;;5.71;62.20;100769.31;1731553;81;21856;-79
2023/01/04 15:27:08;;;;;;;2.80;2.45;;;;;;;5.72;61.82;100766.96;1732846;81;21710;-79
2023/01/04 15:30:16;;;;;;;3.80;2.33;;;;;;;5.56;62.44;100755.73;1734513;81;21200;-80
2023/01/04 15:33:22;;;;;;;3.62;1.80;;;;;;;5.49;62.78;100768.09;1735614;81;21184;-78
2023/01/04 15:36:28;;;;;;;3.08;1.92;;;;;;;5.52;63.26;100769.20;1734097;82;21817;-78